createdAt,value
2023-03-29T11:05:47.823Z,14.62
2023-03-29T11:06:47.809Z,14.54
2023-03-29T11:07:47.768Z,14.77
2023-03-29T11:08:47.738Z,14.75
2023-03-29T11:09:47.734Z,15.09
2023-03-29T11:10:47.682Z,15.27
2023-03-29T11:11:47.686Z,15.32
2023-03-29T11:12:47.690Z,15.47
2023-03-29T11:13:47.638Z,15.35
2023-03-29T11:14:47.629Z,15.46
2023-03-29T11:15:47.668Z,15.29
2023-03-29T11:16:47.604Z,15.27
2023-03-29T11:17:47.651Z,15.44
2023-03-29T11:18:47.574Z,15.69
2023-03-29T11:19:47.573Z,16.02
2023-03-29T11:20:47.562Z,16.09
2023-03-29T11:21:47.544Z,16.04
2023-03-29T11:22:47.551Z,15.67
2023-03-29T11:23:47.507Z,15.67
2023-03-29T11:24:47.483Z,15.92
2023-03-29T11:25:47.488Z,16.07
2023-03-29T11:26:47.477Z,16.08
2023-03-29T11:36:12.653Z,16.12
2023-03-29T11:37:12.576Z,16.25
2023-03-29T11:38:12.585Z,16.28
2023-03-29T11:39:12.548Z,16.17
2023-03-29T11:40:12.569Z,16.42
2023-03-29T11:41:12.524Z,16.53
2023-03-29T11:42:12.512Z,16.67
2023-03-29T11:43:12.471Z,16.57
2023-03-29T11:44:12.480Z,16.83
2023-03-29T11:45:12.462Z,16.45
2023-03-29T11:46:12.453Z,16.33
2023-03-29T11:47:12.411Z,16.41
2023-03-29T11:48:12.426Z,16.42
2023-03-29T11:49:12.407Z,16.60
2023-03-29T11:50:12.394Z,16.66
2023-03-29T11:51:12.370Z,16.58
2023-03-29T11:52:12.366Z,16.52
2023-03-29T11:53:12.348Z,16.81
2023-03-29T11:54:12.353Z,16.63
2023-03-29T11:55:12.303Z,16.67
2023-03-29T11:56:12.317Z,16.82
2023-03-29T11:57:12.310Z,16.61
2023-03-29T11:58:12.262Z,16.70
2023-03-29T11:59:12.253Z,16.78
2023-03-29T12:00:12.248Z,16.88
2023-03-29T12:01:12.245Z,17.04
2023-03-29T12:02:12.269Z,17.19
2023-03-29T12:03:12.249Z,17.14
2023-03-29T12:04:12.222Z,17.37
2023-03-29T12:05:12.192Z,17.46
2023-03-29T12:06:12.140Z,17.64
2023-03-29T12:07:12.156Z,17.46
2023-03-29T12:08:12.151Z,17.26
2023-03-29T12:09:13.690Z,17.43
2023-03-29T12:10:12.132Z,17.66
2023-03-29T12:11:12.148Z,17.63
2023-03-29T12:12:12.060Z,17.79
2023-03-29T12:13:12.057Z,17.59
2023-03-29T12:14:12.032Z,17.58
2023-03-29T12:15:12.059Z,17.77
2023-03-29T12:16:12.019Z,17.81
2023-03-29T12:17:12.008Z,17.78
2023-03-29T12:18:11.999Z,17.93
2023-03-29T12:19:11.974Z,18.14
2023-03-29T12:20:11.981Z,18.07
2023-03-29T12:21:11.945Z,18.54
2023-03-29T12:22:11.939Z,18.63
2023-03-29T12:23:11.920Z,18.90
2023-03-29T12:24:11.900Z,18.95
2023-03-29T12:25:11.913Z,19.33
2023-03-29T12:26:11.887Z,19.62
2023-03-29T12:27:11.868Z,19.83
2023-03-29T12:28:11.866Z,20.08
2023-03-29T12:29:11.860Z,19.69
2023-03-29T12:30:11.823Z,19.87
2023-03-29T12:31:11.852Z,20.43
2023-03-29T12:32:11.825Z,20.64
2023-03-29T12:33:13.686Z,20.59
2023-03-29T12:34:11.772Z,20.13
2023-03-29T12:35:11.778Z,20.01
2023-03-29T12:36:11.807Z,19.46
2023-03-29T12:37:11.768Z,18.73
2023-03-29T12:38:11.749Z,18.44
2023-03-29T12:39:11.754Z,18.35
2023-03-29T12:40:11.731Z,18.41
2023-03-29T12:41:11.712Z,18.52
2023-03-29T12:42:11.699Z,18.67
2023-03-29T12:43:11.680Z,18.94
2023-03-29T12:44:11.676Z,18.76
2023-03-29T12:45:11.678Z,18.99
2023-03-29T12:46:11.661Z,19.04
2023-03-29T12:47:11.656Z,19.25
2023-03-29T12:48:11.649Z,19.19
2023-03-29T12:49:11.627Z,19.07
2023-03-29T12:50:11.605Z,18.82
2023-03-29T12:51:11.585Z,18.67
2023-03-29T12:52:11.577Z,18.18
2023-03-29T12:53:11.578Z,18.07
2023-03-29T12:54:11.558Z,17.99
2023-03-29T12:55:11.531Z,18.20
2023-03-29T12:56:11.553Z,17.70
2023-03-29T12:57:11.575Z,17.70
2023-03-29T12:58:11.539Z,17.70
2023-03-29T12:59:11.505Z,17.87
2023-03-29T13:00:11.487Z,17.93
2023-03-29T13:01:11.534Z,17.86
2023-03-29T13:02:11.500Z,17.81
2023-03-29T13:03:11.485Z,17.93
2023-03-29T13:04:11.437Z,18.37
2023-03-29T13:05:11.444Z,18.72
2023-03-29T13:06:11.424Z,18.51
2023-03-29T13:07:11.402Z,18.25
2023-03-29T13:08:11.385Z,18.29
2023-03-29T13:09:11.384Z,18.10
2023-03-29T13:10:11.341Z,18.41
2023-03-29T13:11:11.339Z,18.65
2023-03-29T13:12:11.321Z,18.51
2023-03-29T13:13:11.345Z,18.39
2023-03-29T13:14:11.296Z,18.36
2023-03-29T13:15:11.287Z,18.65
2023-03-29T13:16:11.310Z,18.95
2023-03-29T13:17:18.473Z,18.98
2023-03-29T13:18:12.499Z,18.88
2023-03-29T13:19:11.237Z,18.80
2023-03-29T13:20:11.237Z,18.75
2023-03-29T13:21:11.214Z,18.90
2023-03-29T13:22:11.190Z,18.94
2023-03-29T13:23:11.216Z,18.92
2023-03-29T13:24:11.191Z,19.19
2023-03-29T13:25:11.187Z,19.91
2023-03-29T13:26:11.144Z,20.41
2023-03-29T13:27:11.139Z,20.69
2023-03-29T13:28:11.151Z,20.38
2023-03-29T13:29:11.118Z,20.59
2023-03-29T13:30:11.094Z,21.04
2023-03-29T13:31:11.114Z,21.21
2023-03-29T13:32:11.080Z,20.95
2023-03-29T13:33:11.108Z,20.36
2023-03-29T13:34:11.057Z,19.78
2023-03-29T13:35:11.073Z,19.62
2023-03-29T13:36:11.068Z,19.28
2023-03-29T13:37:11.036Z,18.92
2023-03-29T13:38:11.058Z,18.72
2023-03-29T13:39:11.031Z,19.16
2023-03-29T13:40:10.996Z,19.28
2023-03-29T13:41:11.010Z,19.55
2023-03-29T13:42:10.985Z,19.41
2023-03-29T13:43:10.996Z,19.28
2023-03-29T13:44:10.954Z,19.43
2023-03-29T13:45:10.938Z,19.22
2023-03-29T13:46:10.971Z,19.33
2023-03-29T13:47:10.937Z,19.32
2023-03-29T13:48:10.967Z,19.32
2023-03-29T13:49:10.941Z,19.40
2023-03-29T13:50:10.898Z,19.62
2023-03-29T13:51:10.868Z,19.40
2023-03-29T13:52:10.855Z,19.02
2023-03-29T13:53:10.872Z,18.81
2023-03-29T13:54:10.844Z,18.94
2023-03-29T13:55:10.843Z,18.67
2023-03-29T13:56:10.804Z,18.76
2023-03-29T13:57:10.835Z,18.76
2023-03-29T13:58:10.779Z,18.65
2023-03-29T13:59:10.773Z,18.63
2023-03-29T14:00:10.789Z,18.48
2023-03-29T14:01:10.807Z,18.42
2023-03-29T14:02:10.769Z,18.39
2023-03-29T14:22:23.790Z,18.48
2023-03-29T14:23:23.759Z,18.66
2023-03-29T14:24:23.750Z,18.90
2023-03-29T14:25:23.739Z,18.69
2023-03-29T14:26:23.706Z,18.66
2023-03-29T14:27:23.701Z,18.70
2023-03-29T14:28:23.695Z,18.67
2023-03-29T14:29:25.486Z,18.58
2023-03-29T14:30:23.711Z,18.55
2023-03-29T14:31:23.674Z,18.67
2023-03-29T14:32:23.658Z,18.72
2023-03-29T14:33:23.612Z,18.80
2023-03-29T14:34:23.602Z,18.91
2023-03-29T14:35:24.265Z,18.85
2023-03-29T14:36:23.645Z,18.60
2023-03-29T14:37:23.562Z,18.72
2023-03-29T14:38:23.547Z,18.90
2023-03-29T14:39:23.585Z,19.00
2023-03-29T14:40:23.512Z,18.98
2023-03-29T14:41:24.385Z,18.87
2023-03-29T14:54:15.322Z,18.55
